createdAt,value
2018-10-06T00:00:19.177Z,73.60
2018-10-06T00:02:47.332Z,74.60
2018-10-06T00:05:15.656Z,74.30
2018-10-06T00:07:43.797Z,74.30
2018-10-06T00:10:11.952Z,74.60
2018-10-06T00:12:40.050Z,75.40
2018-10-06T00:15:08.406Z,75.20
2018-10-06T00:17:36.491Z,74.50
2018-10-06T00:20:04.777Z,74.70
2018-10-06T00:22:32.857Z,74.60
2018-10-06T00:25:00.999Z,74.40
2018-10-06T00:27:29.157Z,74.40
2018-10-06T00:29:57.763Z,75.80
2018-10-06T00:32:26.517Z,76.20
2018-10-06T00:34:54.711Z,76.20
2018-10-06T00:37:22.911Z,76.30
2018-10-06T00:39:51.077Z,76.70
2018-10-06T00:42:19.130Z,75.70
2018-10-06T00:44:47.389Z,76.00
2018-10-06T00:47:15.475Z,75.30
2018-10-06T00:49:43.649Z,75.50
2018-10-06T00:52:11.715Z,76.00
2018-10-06T00:54:39.783Z,76.00
2018-10-06T00:57:07.885Z,76.00
2018-10-06T00:59:36.035Z,76.00
2018-10-06T01:02:05.041Z,76.20
2018-10-06T01:04:33.335Z,75.00
2018-10-06T01:07:01.525Z,76.00
2018-10-06T01:09:29.666Z,75.90
2018-10-06T01:11:57.760Z,75.50
2018-10-06T01:14:25.823Z,76.70
2018-10-06T01:16:53.980Z,75.30
2018-10-06T01:19:22.086Z,75.60
2018-10-06T01:21:50.212Z,76.00
2018-10-06T01:24:18.336Z,76.20
2018-10-06T01:26:46.492Z,76.10
2018-10-06T01:29:14.596Z,76.10
2018-10-06T01:31:42.802Z,75.90
2018-10-06T01:34:10.892Z,76.40
2018-10-06T01:36:39.029Z,75.60
2018-10-06T01:39:07.463Z,75.80
2018-10-06T01:41:35.490Z,75.90
2018-10-06T01:44:03.644Z,75.50
2018-10-06T01:46:31.703Z,75.40
2018-10-06T01:48:59.999Z,74.70
2018-10-06T01:51:28.223Z,75.40
2018-10-06T01:53:56.278Z,74.80
2018-10-06T01:56:24.366Z,75.20
2018-10-06T01:58:52.485Z,74.60
2018-10-06T02:01:20.501Z,74.60
2018-10-06T02:03:48.759Z,75.20
2018-10-06T02:06:17.126Z,75.90
2018-10-06T02:08:45.343Z,76.00
2018-10-06T02:11:13.409Z,74.80
2018-10-06T02:13:42.161Z,75.10
2018-10-06T02:16:10.279Z,75.40
2018-10-06T02:18:38.373Z,75.90
2018-10-06T02:21:06.577Z,75.10
2018-10-06T02:23:34.812Z,75.80
2018-10-06T02:26:02.959Z,74.60
2018-10-06T02:28:31.149Z,74.60
2018-10-06T02:30:59.261Z,75.30
2018-10-06T02:33:27.325Z,74.50
2018-10-06T02:35:55.648Z,75.00
2018-10-06T02:38:23.790Z,75.50
2018-10-06T02:40:52.061Z,75.40
2018-10-06T02:43:20.897Z,74.50
2018-10-06T02:45:48.997Z,75.30
2018-10-06T02:48:17.366Z,76.00
2018-10-06T02:50:45.508Z,75.10
2018-10-06T02:53:13.512Z,74.30
2018-10-06T02:55:41.753Z,74.70
2018-10-06T02:58:09.953Z,74.80
2018-10-06T03:00:38.320Z,74.30
2018-10-06T03:03:06.494Z,74.30
2018-10-06T03:05:34.668Z,74.30
2018-10-06T03:08:02.696Z,74.40
2018-10-06T03:10:30.819Z,74.80
2018-10-06T03:12:58.937Z,75.40
2018-10-06T03:15:27.191Z,75.70
2018-10-06T03:17:55.383Z,75.10
2018-10-06T03:20:23.603Z,75.40
2018-10-06T03:22:51.683Z,75.00
2018-10-06T03:25:19.852Z,74.60
2018-10-06T03:27:48.142Z,74.40
2018-10-06T03:30:16.367Z,74.30
2018-10-06T03:32:44.620Z,74.40
2018-10-06T03:35:12.750Z,75.70
2018-10-06T03:37:40.830Z,77.70
2018-10-06T03:40:09.085Z,77.60
2018-10-06T03:42:37.110Z,76.60
2018-10-06T03:45:05.330Z,77.10
2018-10-06T03:47:33.419Z,77.00
2018-10-06T03:50:01.470Z,77.30
2018-10-06T03:52:29.548Z,78.30
2018-10-06T03:54:57.753Z,77.90
2018-10-06T03:57:25.814Z,77.80
2018-10-06T03:59:54.006Z,77.90
2018-10-06T04:02:22.240Z,77.20
2018-10-06T04:04:50.438Z,76.90
2018-10-06T04:07:18.457Z,76.80
2018-10-06T04:09:46.588Z,76.60
2018-10-06T04:12:14.673Z,77.10
2018-10-06T04:14:42.809Z,77.70
2018-10-06T04:17:10.879Z,77.80
2018-10-06T04:19:38.889Z,77.70
2018-10-06T04:22:07.053Z,77.20
2018-10-06T04:24:35.139Z,77.40
2018-10-06T04:27:03.260Z,77.60
2018-10-06T04:29:31.214Z,78.90
2018-10-06T04:31:59.241Z,79.00
2018-10-06T04:34:27.670Z,79.00
2018-10-06T04:36:55.761Z,79.10
2018-10-06T04:39:23.872Z,79.10
2018-10-06T04:41:51.942Z,79.00
2018-10-06T04:44:20.041Z,79.00
2018-10-06T04:46:48.225Z,78.90
2018-10-06T04:49:16.387Z,79.50
2018-10-06T04:51:44.502Z,78.90
2018-10-06T04:54:12.641Z,78.90
2018-10-06T04:56:40.741Z,78.90
2018-10-06T04:59:09.035Z,78.90
2018-10-06T05:01:37.193Z,78.90
2018-10-06T05:04:05.424Z,78.90
2018-10-06T05:06:33.784Z,78.90
2018-10-06T05:09:01.899Z,78.90
2018-10-06T05:11:30.141Z,78.90
2018-10-06T05:13:58.218Z,78.90
2018-10-06T05:16:26.415Z,77.40
2018-10-06T05:18:54.717Z,79.00
2018-10-06T05:21:22.909Z,79.00
2018-10-06T05:23:51.514Z,79.00
2018-10-06T05:26:19.638Z,77.70
2018-10-06T05:28:47.925Z,77.30
2018-10-06T05:31:16.153Z,78.10
2018-10-06T05:33:44.298Z,77.40
2018-10-06T05:36:12.371Z,77.30
2018-10-06T05:38:40.507Z,77.40
2018-10-06T05:41:08.721Z,77.60
2018-10-06T05:43:37.767Z,78.10
2018-10-06T05:46:06.158Z,78.30
2018-10-06T05:48:34.380Z,78.70
2018-10-06T05:51:02.515Z,77.90
2018-10-06T05:53:30.732Z,77.60
2018-10-06T05:55:58.909Z,77.00
2018-10-06T05:58:27.126Z,77.30
2018-10-06T06:00:55.318Z,75.20
2018-10-06T06:03:23.431Z,75.90
2018-10-06T06:05:51.718Z,75.90
2018-10-06T06:08:20.191Z,75.30
2018-10-06T06:10:48.306Z,75.50
2018-10-06T06:13:16.381Z,74.60
2018-10-06T06:15:44.509Z,74.30
2018-10-06T06:18:12.500Z,74.40
2018-10-06T06:20:40.625Z,74.60
2018-10-06T06:23:09.240Z,73.80
2018-10-06T06:25:37.491Z,73.00
2018-10-06T06:28:05.801Z,72.50
2018-10-06T06:30:34.028Z,71.70
2018-10-06T06:33:02.234Z,70.30
2018-10-06T06:35:30.506Z,69.80
2018-10-06T06:37:58.738Z,69.50
2018-10-06T06:40:26.985Z,67.50
2018-10-06T06:42:55.238Z,67.30
2018-10-06T06:45:23.337Z,66.50
2018-10-06T06:47:51.685Z,67.00
2018-10-06T06:50:19.948Z,66.10
2018-10-06T06:52:48.218Z,66.80
2018-10-06T06:55:16.303Z,65.60
2018-10-06T06:57:44.405Z,65.80
2018-10-06T07:00:12.567Z,65.50
2018-10-06T07:02:41.344Z,66.60
2018-10-06T07:05:09.450Z,65.90
2018-10-06T07:07:38.941Z,66.00
2018-10-06T07:10:07.064Z,65.10
2018-10-06T07:12:35.413Z,63.40
2018-10-06T07:15:03.620Z,58.60
2018-10-06T07:17:31.751Z,51.80
2018-10-06T07:19:59.948Z,48.00
2018-10-06T07:22:28.153Z,45.10
2018-10-06T07:24:56.387Z,43.60
2018-10-06T07:27:24.623Z,41.00
2018-10-06T07:29:52.817Z,42.20
2018-10-06T07:32:20.928Z,41.80
2018-10-06T07:34:49.040Z,39.80
2018-10-06T07:37:17.736Z,36.50
2018-10-06T07:39:45.809Z,34.20
2018-10-06T07:42:14.062Z,31.50
2018-10-06T07:44:42.274Z,31.50
2018-10-06T07:47:10.494Z,30.00
2018-10-06T07:49:38.630Z,28.80
2018-10-06T07:52:06.800Z,28.00
2018-10-06T07:54:34.969Z,28.00
2018-10-06T07:57:03.190Z,27.30
2018-10-06T07:59:31.255Z,29.00
2018-10-06T08:01:59.465Z,29.00
2018-10-06T08:04:27.611Z,29.30
2018-10-06T08:06:55.810Z,29.00
2018-10-06T08:09:24.298Z,29.00
2018-10-06T08:11:52.410Z,29.40
2018-10-06T08:14:20.539Z,28.70
2018-10-06T08:16:48.796Z,28.40
2018-10-06T08:19:16.994Z,29.30
2018-10-06T08:21:45.144Z,29.00
2018-10-06T08:24:13.253Z,28.90
2018-10-06T08:26:41.525Z,28.70
2018-10-06T08:29:09.697Z,28.80
2018-10-06T08:31:37.894Z,30.00
2018-10-06T08:34:06.202Z,29.40
2018-10-06T08:36:35.098Z,27.50
2018-10-06T08:39:19.465Z,28.00
2018-10-06T08:41:47.560Z,25.70
2018-10-06T08:44:16.362Z,27.50
2018-10-06T08:46:49.762Z,27.50
2018-10-06T08:49:17.807Z,29.20
2018-10-06T08:51:46.045Z,31.30
2018-10-06T08:54:14.121Z,31.60
2018-10-06T08:56:42.190Z,33.00
2018-10-06T08:59:10.287Z,34.60
2018-10-06T09:01:38.479Z,35.20
2018-10-06T09:04:06.651Z,35.90
2018-10-06T09:06:34.797Z,36.80
2018-10-06T09:09:04.318Z,38.00
2018-10-06T09:11:32.362Z,39.20
2018-10-06T09:14:01.258Z,40.60
2018-10-06T09:16:29.389Z,41.90
2018-10-06T09:18:57.469Z,42.30
2018-10-06T09:21:25.927Z,42.10
2018-10-06T09:23:54.067Z,43.00
2018-10-06T09:26:22.201Z,43.10
2018-10-06T09:28:50.435Z,43.30
2018-10-06T09:31:18.518Z,44.20
2018-10-06T09:33:46.663Z,44.10
2018-10-06T09:36:14.863Z,44.90
2018-10-06T09:38:42.930Z,44.80
2018-10-06T09:41:11.014Z,44.90
2018-10-06T09:43:39.087Z,44.80
2018-10-06T09:46:07.330Z,45.70
2018-10-06T09:48:35.509Z,45.70
2018-10-06T09:51:03.571Z,46.20
2018-10-06T09:53:31.748Z,46.70
2018-10-06T09:55:59.840Z,45.70
2018-10-06T09:58:28.718Z,45.20
2018-10-06T10:01:02.364Z,45.30
2018-10-06T10:03:36.145Z,45.40
2018-10-06T10:06:04.308Z,45.60
2018-10-06T10:08:32.313Z,45.50
2018-10-06T10:11:00.413Z,45.10
2018-10-06T10:13:28.583Z,45.40
2018-10-06T10:15:56.709Z,45.50
2018-10-06T10:18:24.967Z,45.80
2018-10-06T10:20:52.967Z,45.80
2018-10-06T10:23:21.800Z,45.90
2018-10-06T10:25:50.679Z,46.20
2018-10-06T10:28:18.872Z,45.80
2018-10-06T10:30:47.085Z,43.90
2018-10-06T10:33:15.153Z,42.10
2018-10-06T10:35:43.180Z,40.10
2018-10-06T10:38:11.339Z,36.30
2018-10-06T10:40:39.383Z,32.80
2018-10-06T10:43:07.451Z,29.30
2018-10-06T10:45:35.529Z,27.40
2018-10-06T10:48:03.659Z,25.90
2018-10-06T10:50:31.776Z,25.00
2018-10-06T10:52:59.964Z,25.60
2018-10-06T10:55:28.125Z,25.30
2018-10-06T10:57:56.261Z,24.40
2018-10-06T11:00:24.445Z,24.20
2018-10-06T11:02:52.595Z,24.80
2018-10-06T11:05:20.682Z,24.90
2018-10-06T11:07:48.852Z,25.20
2018-10-06T11:10:16.918Z,25.90
2018-10-06T11:12:45.070Z,26.60
2018-10-06T11:15:13.300Z,27.70
2018-10-06T11:17:41.546Z,27.80
2018-10-06T11:20:09.820Z,28.50
2018-10-06T11:22:37.998Z,28.30
2018-10-06T11:25:06.099Z,26.90
2018-10-06T11:27:34.528Z,26.00
2018-10-06T11:30:02.764Z,25.90
2018-10-06T11:32:31.069Z,25.90
2018-10-06T11:34:59.327Z,25.70
2018-10-06T11:37:28.315Z,25.10
2018-10-06T11:39:56.274Z,24.40
2018-10-06T11:42:24.502Z,23.20
2018-10-06T11:44:52.525Z,23.90
2018-10-06T11:47:20.708Z,25.20
2018-10-06T11:49:48.977Z,23.10
2018-10-06T11:52:17.033Z,23.50
2018-10-06T11:54:45.100Z,24.40
2018-10-06T11:57:13.891Z,25.10
2018-10-06T11:59:42.117Z,25.80
2018-10-06T12:02:10.189Z,26.20
2018-10-06T12:04:38.360Z,27.00
2018-10-06T12:07:06.486Z,26.00
2018-10-06T12:09:34.701Z,24.50
2018-10-06T12:12:02.774Z,22.90
2018-10-06T12:14:30.853Z,22.20
2018-10-06T12:16:59.372Z,20.20
2018-10-06T12:19:28.439Z,18.30
2018-10-06T12:21:56.625Z,18.80
2018-10-06T12:24:24.812Z,19.30
2018-10-06T12:26:52.810Z,18.80
2018-10-06T12:29:20.885Z,19.50
2018-10-06T12:31:49.030Z,20.30
2018-10-06T12:34:17.132Z,19.00
2018-10-06T12:36:45.294Z,17.30
2018-10-06T12:39:13.396Z,16.50
2018-10-06T12:41:41.484Z,15.60
2018-10-06T12:44:09.599Z,16.60
2018-10-06T12:46:37.777Z,15.90
2018-10-06T12:49:06.113Z,15.30
2018-10-06T12:51:34.357Z,15.50
2018-10-06T12:54:02.454Z,14.60
2018-10-06T12:56:30.582Z,13.00
2018-10-06T13:01:34.592Z,14.10
2018-10-06T13:04:02.762Z,15.30
2018-10-06T13:06:31.023Z,14.80
2018-10-06T13:08:59.205Z,16.90
2018-10-06T13:11:27.359Z,17.70
2018-10-06T13:13:55.504Z,18.40
2018-10-06T13:16:23.829Z,19.40
2018-10-06T13:18:52.131Z,20.10
2018-10-06T13:21:20.325Z,21.00
2018-10-06T13:23:49.141Z,21.60
2018-10-06T13:26:17.423Z,22.00
2018-10-06T13:28:45.652Z,22.40
2018-10-06T13:31:13.833Z,22.50
2018-10-06T13:33:41.959Z,22.20
2018-10-06T13:36:10.170Z,21.50
2018-10-06T13:38:38.405Z,20.00
2018-10-06T13:41:06.619Z,20.10
2018-10-06T13:43:34.915Z,18.80
2018-10-06T13:46:03.061Z,18.50
2018-10-06T13:48:31.442Z,19.30
2018-10-06T13:50:59.743Z,20.90
2018-10-06T13:53:27.923Z,21.60
2018-10-06T13:55:56.193Z,21.60
2018-10-06T13:58:24.507Z,21.40
2018-10-06T14:00:52.789Z,22.50
2018-10-06T14:03:21.065Z,21.40
2018-10-06T14:05:49.211Z,22.60
2018-10-06T14:08:17.365Z,21.40
2018-10-06T14:10:45.579Z,22.50
2018-10-06T14:13:13.810Z,23.50
2018-10-06T14:15:41.992Z,24.10
2018-10-06T14:18:10.213Z,22.00
2018-10-06T14:20:38.480Z,22.50
2018-10-06T14:23:06.753Z,22.30
2018-10-06T14:25:34.933Z,22.20
2018-10-06T14:28:03.072Z,22.00
2018-10-06T14:30:31.262Z,23.30
2018-10-06T14:32:59.389Z,24.20
2018-10-06T14:35:27.771Z,24.60
2018-10-06T14:37:55.868Z,25.00
2018-10-06T14:40:24.096Z,26.00
2018-10-06T14:42:52.418Z,25.90
2018-10-06T14:45:20.612Z,27.90
2018-10-06T14:47:48.870Z,26.60
2018-10-06T14:50:17.199Z,26.90
2018-10-06T14:52:45.469Z,26.90
2018-10-06T14:55:13.659Z,27.70
2018-10-06T14:57:41.800Z,28.70
2018-10-06T15:00:09.973Z,28.80
2018-10-06T15:02:38.082Z,29.90
2018-10-06T15:05:06.467Z,28.80
2018-10-06T15:07:35.026Z,29.80
2018-10-06T15:10:03.258Z,28.90
2018-10-06T15:12:31.580Z,29.40
2018-10-06T15:14:59.962Z,29.40
2018-10-06T15:17:28.062Z,29.30
2018-10-06T15:19:56.274Z,30.10
2018-10-06T15:22:24.550Z,33.70
2018-10-06T15:24:52.732Z,31.70
2018-10-06T15:27:20.809Z,31.70
2018-10-06T15:29:49.130Z,34.10
2018-10-06T15:32:17.373Z,34.10
2018-10-06T15:34:45.706Z,34.80
2018-10-06T15:37:13.862Z,34.60
2018-10-06T15:39:42.140Z,35.70
2018-10-06T15:42:10.286Z,36.60
2018-10-06T15:44:38.454Z,39.10
2018-10-06T15:47:06.553Z,39.00
2018-10-06T15:49:34.605Z,40.20
2018-10-06T15:52:02.800Z,42.60
2018-10-06T15:54:30.937Z,42.00
2018-10-06T15:56:58.988Z,41.00
2018-10-06T15:59:27.622Z,42.00
2018-10-06T16:01:55.791Z,43.90
2018-10-06T16:04:23.975Z,41.50
2018-10-06T16:06:52.094Z,41.50
2018-10-06T16:09:20.298Z,42.00
2018-10-06T16:11:49.188Z,42.70
2018-10-06T16:14:17.392Z,43.10
2018-10-06T16:16:46.140Z,44.20
2018-10-06T16:19:14.466Z,44.50
2018-10-06T16:21:42.922Z,45.00
2018-10-06T16:24:10.954Z,45.90
2018-10-06T16:26:39.115Z,48.00
2018-10-06T16:29:07.454Z,48.10
2018-10-06T16:31:35.700Z,48.70
2018-10-06T16:34:03.890Z,48.60
2018-10-06T16:36:31.924Z,47.70
2018-10-06T16:39:00.581Z,48.70
2018-10-06T16:41:28.685Z,47.50
2018-10-06T16:43:56.950Z,49.20
2018-10-06T16:46:25.231Z,49.20
2018-10-06T16:48:53.328Z,49.70
2018-10-06T16:51:21.629Z,51.50
2018-10-06T16:53:49.863Z,51.00
2018-10-06T16:56:18.570Z,50.80
2018-10-06T16:58:46.787Z,51.20
2018-10-06T17:01:15.102Z,51.40
2018-10-06T17:03:43.294Z,52.80
2018-10-06T17:06:12.211Z,51.20
2018-10-06T17:08:40.378Z,53.90
2018-10-06T17:11:08.568Z,53.80
2018-10-06T17:13:36.701Z,53.90
2018-10-06T17:16:04.871Z,53.70
2018-10-06T17:18:32.993Z,54.70
2018-10-06T17:21:01.139Z,54.60
2018-10-06T17:23:29.917Z,54.70
2018-10-06T17:25:58.077Z,55.00
2018-10-06T17:28:26.245Z,54.70
2018-10-06T17:30:54.508Z,56.10
2018-10-06T17:33:22.674Z,56.30
2018-10-06T17:35:51.383Z,56.00
2018-10-06T17:38:19.573Z,57.50
2018-10-06T17:40:47.795Z,57.20
2018-10-06T17:43:15.957Z,56.20
2018-10-06T17:45:44.275Z,58.00
2018-10-06T17:48:12.656Z,57.80
2018-10-06T17:50:41.060Z,59.10
2018-10-06T17:53:09.163Z,58.60
2018-10-06T17:55:37.340Z,57.50
2018-10-06T17:58:05.658Z,59.00
2018-10-06T18:00:33.730Z,60.40
2018-10-06T18:03:02.079Z,60.60
2018-10-06T18:05:30.402Z,59.20
2018-10-06T18:07:58.542Z,60.60
2018-10-06T18:10:26.582Z,59.70
2018-10-06T18:12:54.866Z,59.40
2018-10-06T18:15:24.023Z,59.60
2018-10-06T18:17:52.284Z,60.20
2018-10-06T18:20:20.548Z,61.50
2018-10-06T18:22:48.677Z,61.30
2018-10-06T18:25:17.113Z,62.10
2018-10-06T18:27:45.612Z,62.40
2018-10-06T18:30:13.664Z,61.70
2018-10-06T18:32:41.844Z,62.80
2018-10-06T18:35:10.040Z,63.20
2018-10-06T18:37:38.161Z,62.80
2018-10-06T18:40:06.313Z,62.20
2018-10-06T18:42:34.409Z,62.90
2018-10-06T18:45:02.641Z,63.70
2018-10-06T18:47:30.938Z,63.70
2018-10-06T18:49:59.261Z,64.70
2018-10-06T18:52:27.481Z,65.80
2018-10-06T18:54:55.716Z,65.60
2018-10-06T18:57:23.926Z,65.00
2018-10-06T18:59:52.403Z,64.90
2018-10-06T19:02:20.954Z,65.50
2018-10-06T19:04:49.434Z,65.50
2018-10-06T19:07:18.013Z,65.50
2018-10-06T19:09:46.554Z,65.50
2018-10-06T19:12:15.004Z,64.60
2018-10-06T19:14:43.703Z,65.40
2018-10-06T19:17:12.105Z,65.20
2018-10-06T19:19:40.607Z,66.10
2018-10-06T19:22:09.094Z,65.30
2018-10-06T19:24:38.103Z,65.20
2018-10-06T19:27:06.611Z,65.30
2018-10-06T19:29:34.921Z,66.20
2018-10-06T19:32:03.387Z,67.00
2018-10-06T19:34:31.874Z,65.60
2018-10-06T19:37:00.323Z,65.10
2018-10-06T19:39:28.853Z,65.10
2018-10-06T19:41:57.417Z,66.10
2018-10-06T19:44:25.824Z,66.30
2018-10-06T19:46:54.358Z,68.00
2018-10-06T19:49:22.850Z,68.60
2018-10-06T19:51:51.219Z,69.20
2018-10-06T19:54:19.841Z,70.30
2018-10-06T19:56:48.305Z,70.60
2018-10-06T19:59:16.921Z,70.80
2018-10-06T20:01:45.887Z,71.10
2018-10-06T20:04:14.400Z,70.50
2018-10-06T20:06:43.056Z,70.30
2018-10-06T20:09:12.063Z,70.40
2018-10-06T20:11:41.102Z,69.40
2018-10-06T20:14:09.570Z,69.40
2018-10-06T20:16:38.375Z,68.20
2018-10-06T20:19:06.950Z,70.00
2018-10-06T20:21:35.390Z,70.50
2018-10-06T20:24:03.842Z,70.30
2018-10-06T20:26:32.030Z,70.30
2018-10-06T20:29:00.094Z,70.40
2018-10-06T20:31:28.202Z,69.80
2018-10-06T20:33:56.321Z,70.00
2018-10-06T20:36:24.408Z,69.30
2018-10-06T20:38:52.564Z,70.90
2018-10-06T20:41:20.722Z,71.00
2018-10-06T20:43:48.774Z,71.60
2018-10-06T20:46:16.837Z,71.60
2018-10-06T20:48:44.978Z,72.20
2018-10-06T20:51:13.213Z,72.80
2018-10-06T20:53:41.505Z,74.40
2018-10-06T20:56:09.697Z,75.10
2018-10-06T20:58:39.226Z,75.00
2018-10-06T21:01:07.466Z,75.00
2018-10-06T21:03:35.722Z,74.90
2018-10-06T21:06:03.912Z,74.90
2018-10-06T21:08:32.067Z,74.80
2018-10-06T21:11:00.197Z,74.80
2018-10-06T21:13:28.327Z,74.70
2018-10-06T21:15:56.540Z,76.40
2018-10-06T21:18:24.821Z,75.30
2018-10-06T21:20:52.936Z,75.30
2018-10-06T21:23:21.126Z,74.80
2018-10-06T21:25:49.383Z,74.50
2018-10-06T21:28:17.591Z,74.00
2018-10-06T21:30:45.823Z,74.40
2018-10-06T21:33:14.077Z,74.40
2018-10-06T21:35:42.301Z,74.40
2018-10-06T21:38:11.125Z,76.40
2018-10-06T21:40:39.268Z,76.60
2018-10-06T21:43:07.536Z,76.60
2018-10-06T21:45:35.878Z,76.50
2018-10-06T21:48:04.899Z,77.20
2018-10-06T21:50:33.126Z,76.50
2018-10-06T21:53:01.248Z,77.20
2018-10-06T21:55:30.006Z,75.60
2018-10-06T21:57:58.325Z,75.50
2018-10-06T22:00:26.602Z,75.80
2018-10-06T22:02:54.689Z,76.10
2018-10-06T22:05:22.866Z,77.30
2018-10-06T22:07:51.079Z,75.60
2018-10-06T22:10:19.312Z,75.60
2018-10-06T22:12:47.441Z,75.80
2018-10-06T22:15:15.621Z,76.70
2018-10-06T22:17:43.687Z,76.60
2018-10-06T22:20:11.861Z,76.70
2018-10-06T22:22:39.979Z,76.10
2018-10-06T22:25:08.538Z,76.30
2018-10-06T22:27:36.538Z,77.70
2018-10-06T22:30:05.913Z,78.40
2018-10-06T22:32:34.049Z,77.70
2018-10-06T22:35:02.294Z,76.80
2018-10-06T22:37:30.740Z,77.20
2018-10-06T22:39:58.809Z,77.90
2018-10-06T22:42:26.877Z,77.90
2018-10-06T22:44:55.983Z,77.60
2018-10-06T22:47:24.280Z,78.90
2018-10-06T22:49:52.418Z,78.10
2018-10-06T22:52:20.514Z,78.80
2018-10-06T22:54:48.705Z,78.20
2018-10-06T22:57:16.855Z,77.90
2018-10-06T22:59:45.110Z,78.00
2018-10-06T23:02:13.359Z,78.60
2018-10-06T23:04:41.481Z,78.60
2018-10-06T23:07:09.670Z,78.30
2018-10-06T23:09:38.839Z,77.70
2018-10-06T23:12:06.980Z,78.40
2018-10-06T23:14:35.240Z,78.40
2018-10-06T23:17:03.450Z,78.20
2018-10-06T23:19:31.649Z,78.30
2018-10-06T23:21:59.786Z,80.70
2018-10-06T23:24:28.020Z,80.50
2018-10-06T23:26:56.297Z,79.20
2018-10-06T23:29:24.461Z,79.60
2018-10-06T23:31:52.697Z,79.70
2018-10-06T23:34:20.894Z,79.20
2018-10-06T23:36:49.249Z,80.50
2018-10-06T23:39:17.415Z,80.00
2018-10-06T23:41:45.704Z,79.70
2018-10-06T23:44:14.533Z,78.20
2018-10-06T23:46:42.730Z,78.60
2018-10-06T23:49:10.995Z,78.80
2018-10-06T23:51:39.195Z,79.00
2018-10-06T23:54:07.834Z,78.70
2018-10-06T23:56:35.943Z,79.60
2018-10-06T23:59:04.172Z,81.80
